Vantage — PBMC — position and weather

sailwx.info

Track history (hours):
 
Tides and Currents Weather Stations Pressure Air Temp Water Temp Dewpoint Dewpoint Depression Visibility Wind Speed Wind Dir Waves Ship Positions

Vantage

Last reported at 2017-Sep-24 08:29 UTC. Time now 2017-Sep-24 08:46 UTC.
Position N 26°08' W 080°05'.

Length 100 m; draft 3.9 m.

Type: Cargo ship. MMSI: 244984986.

Date/timePositionNaut miles runAvg speedWind from/ knotsBaromVisibWave heightAir tempDewpointWater temp
2017-Sep-24 08:29N 26°08' W 080°05'0 0.0
2017-Sep-24 07:59N 26°08' W 080°05'0 0.1
2017-Sep-24 07:29N 26°07' W 080°05'0 0.0
2017-Sep-24 06:59N 26°07' W 080°05'0 0.0
2017-Sep-24 06:29N 26°07' W 080°05'0 0.0
2017-Sep-24 05:59N 26°07' W 080°05'0 0.0
2017-Sep-24 05:29N 26°07' W 080°05'0 0.0
2017-Sep-24 04:59N 26°07' W 080°05'0 0.0
2017-Sep-24 04:29N 26°07' W 080°05'0 0.0
2017-Sep-24 03:59N 26°07' W 080°05'0 0.0
2017-Sep-24 03:29N 26°07' W 080°05'0 0.0
2017-Sep-24 02:59N 26°07' W 080°05'0 0.0
2017-Sep-24 02:29N 26°07' W 080°05'0 0.0
2017-Sep-24 01:59N 26°07' W 080°05'0 0.0
2017-Sep-24 01:29N 26°07' W 080°05'0 0.0
2017-Sep-24 00:59N 26°07' W 080°05'0 0.0
2017-Sep-24 00:29N 26°07' W 080°05'0 0.1
2017-Sep-23 23:59N 26°07' W 080°05'0 0.0
2017-Sep-23 23:29N 26°07' W 080°05'0 0.0
2017-Sep-23 22:59N 26°07' W 080°05'0 0.0
2017-Sep-23 22:29N 26°07' W 080°05'0 0.1
2017-Sep-23 21:59N 26°07' W 080°05'0 0.0
2017-Sep-23 21:29N 26°07' W 080°05'0 0.1
2017-Sep-23 20:59N 26°07' W 080°05'0 0.0
2017-Sep-23 20:29N 26°07' W 080°05'0 0.1
2017-Sep-23 19:59N 26°07' W 080°05'22 0.5
2017-Sep-22 01:59N 25°46' W 080°10'0 0.0
2017-Sep-22 01:29N 25°46' W 080°10'0 0.0
2017-Sep-22 00:59N 25°46' W 080°10'0 0.0
2017-Sep-22 00:29N 25°46' W 080°10'0 0.0
2017-Sep-21 23:59N 25°46' W 080°10'0 0.0
2017-Sep-21 23:29N 25°46' W 080°10'0 0.0
2017-Sep-21 22:59N 25°46' W 080°10'0 0.0
2017-Sep-21 22:29N 25°46' W 080°10'0 0.0
2017-Sep-21 21:59N 25°46' W 080°10'0 0.0
2017-Sep-21 21:29N 25°46' W 080°10'0 0.0
2017-Sep-21 20:59N 25°46' W 080°10'0 0.0
2017-Sep-21 20:29N 25°46' W 080°10'0 0.0
2017-Sep-21 19:50N 25°46' W 080°10'0 0.0
2017-Sep-21 19:29N 25°46' W 080°10'0 0.0
2017-Sep-21 18:59N 25°46' W 080°10'0 0.0
2017-Sep-21 18:29N 25°46' W 080°10'0 0.0
2017-Sep-21 17:59N 25°46' W 080°10'0 0.0
2017-Sep-21 17:29N 25°46' W 080°10'0 0.0
2017-Sep-21 16:59N 25°46' W 080°10'0 0.0
2017-Sep-21 16:26N 25°46' W 080°10'0 0.0
2017-Sep-21 15:56N 25°46' W 080°10'0 0.0
2017-Sep-21 15:29N 25°46' W 080°10'0 0.0
2017-Sep-21 14:59N 25°46' W 080°10'0 0.0
2017-Sep-21 14:29N 25°46' W 080°10'0 0.0
2017-Sep-21 13:59N 25°46' W 080°10'0 0.0
2017-Sep-21 13:29N 25°46' W 080°10'0 0.0
2017-Sep-21 13:00N 25°46' W 080°10'2 3.9
2017-Sep-21 12:30N 25°46' W 080°08'3 6.7
2017-Sep-21 12:00N 25°47' W 080°05'3 5.8
2017-Sep-21 11:30N 25°46' W 080°01'713.2
2017-Sep-21 11:00N 25°40' W 080°01'714.4
2017-Sep-21 10:30N 25°32' W 080°01'1214.8
2017-Sep-21 09:42N 25°20' W 080°01'314.9
2017-Sep-21 09:30N 25°18' W 080°01'  
2017-Sep-15 09:16N 24°26' W 081°03'311.2
2017-Sep-15 09:00N 24°28' W 081°00'611.1
2017-Sep-15 08:27N 24°32' W 080°55'611.7
2017-Sep-15 07:57N 24°35' W 080°50'5613.0
2017-Sep-15 03:40N 25°15' W 080°06'211.9
2017-Sep-15 03:29N 25°17' W 080°05'611.6
2017-Sep-15 03:00N 25°22' W 080°03'511.1
2017-Sep-15 02:30N 25°27' W 080°02'611.2
2017-Sep-15 02:00N 25°33' W 080°01'611.4
2017-Sep-15 01:30N 25°38' W 080°01'611.6
2017-Sep-15 01:00N 25°44' W 080°01'611.6
2017-Sep-15 00:30N 25°50' W 080°01'611.6
2017-Sep-15 00:00N 25°56' W 080°01'611.9
2017-Sep-14 23:30N 26°02' W 080°02'510.0
2017-Sep-14 23:00N 26°06' W 080°05'2 3.8
2017-Sep-14 22:30N 26°05' W 080°07'0 0.0
2017-Sep-14 21:58N 26°05' W 080°07'0 0.0
2017-Sep-14 21:28N 26°05' W 080°07'0 0.0
2017-Sep-14 20:58N 26°05' W 080°07'0 0.0
2017-Sep-14 20:28N 26°05' W 080°07'0 0.0
2017-Sep-14 19:58N 26°05' W 080°07'0 0.0
2017-Sep-14 19:28N 26°05' W 080°07'0 0.0
2017-Sep-14 18:58N 26°05' W 080°07'0 0.0
2017-Sep-14 18:28N 26°05' W 080°07'0 0.0
2017-Sep-14 17:58N 26°05' W 080°07'0 0.0
2017-Sep-14 14:38N 26°06' W 080°07'1 5.5
2017-Sep-14 14:28N 26°06' W 080°06'3 6.8
2017-Sep-14 13:59N 26°08' W 080°04'1 1.1
2017-Sep-14 13:11N 26°09' W 080°05'0 0.0
2017-Sep-14 12:56N 26°09' W 080°05'0 0.1
2017-Sep-14 12:23N 26°09' W 080°05'0 0.0
2017-Sep-14 11:59N 26°09' W 080°05'0 0.0
2017-Sep-14 11:29N 26°09' W 080°05'0 0.0
2017-Sep-14 10:50N 26°09' W 080°04'0 0.1
2017-Sep-14 10:26N 26°09' W 080°04'0 0.0
2017-Sep-14 09:50N 26°09' W 080°04'0 0.0
2017-Sep-14 09:29N 26°09' W 080°04'0 0.1
2017-Sep-14 08:44N 26°09' W 080°05'  
Track history (hours):
 
Tides and Currents Weather Stations Pressure Air Temp Water Temp Dewpoint Dewpoint Depression Visibility Wind Speed Wind Dir Waves Ship Positions

Vantage

Last reported at 2017-Sep-24 08:29 UTC. Time now 2017-Sep-24 08:46 UTC.
Position N 26°08' W 080°05'.

Length 100 m; draft 3.9 m.

Type: Cargo ship. MMSI: 244984986.

Date/timePositionNaut miles runAvg speedWind from/ knotsBaromVisibWave heightAir tempDewpointWater temp
2017-Sep-24 08:29N 26°08' W 080°05'0 0.0
2017-Sep-24 07:59N 26°08' W 080°05'0 0.1
2017-Sep-24 07:29N 26°07' W 080°05'0 0.0
2017-Sep-24 06:59N 26°07' W 080°05'0 0.0
2017-Sep-24 06:29N 26°07' W 080°05'0 0.0
2017-Sep-24 05:59N 26°07' W 080°05'0 0.0
2017-Sep-24 05:29N 26°07' W 080°05'0 0.0
2017-Sep-24 04:59N 26°07' W 080°05'0 0.0
2017-Sep-24 04:29N 26°07' W 080°05'0 0.0
2017-Sep-24 03:59N 26°07' W 080°05'0 0.0
2017-Sep-24 03:29N 26°07' W 080°05'0 0.0
2017-Sep-24 02:59N 26°07' W 080°05'0 0.0
2017-Sep-24 02:29N 26°07' W 080°05'0 0.0
2017-Sep-24 01:59N 26°07' W 080°05'0 0.0
2017-Sep-24 01:29N 26°07' W 080°05'0 0.0
2017-Sep-24 00:59N 26°07' W 080°05'0 0.0
2017-Sep-24 00:29N 26°07' W 080°05'0 0.1
2017-Sep-23 23:59N 26°07' W 080°05'0 0.0
2017-Sep-23 23:29N 26°07' W 080°05'0 0.0
2017-Sep-23 22:59N 26°07' W 080°05'0 0.0
2017-Sep-23 22:29N 26°07' W 080°05'0 0.1
2017-Sep-23 21:59N 26°07' W 080°05'0 0.0
2017-Sep-23 21:29N 26°07' W 080°05'0 0.1
2017-Sep-23 20:59N 26°07' W 080°05'0 0.0
2017-Sep-23 20:29N 26°07' W 080°05'0 0.1
2017-Sep-23 19:59N 26°07' W 080°05'22 0.5
2017-Sep-22 01:59N 25°46' W 080°10'0 0.0
2017-Sep-22 01:29N 25°46' W 080°10'0 0.0
2017-Sep-22 00:59N 25°46' W 080°10'0 0.0
2017-Sep-22 00:29N 25°46' W 080°10'0 0.0
2017-Sep-21 23:59N 25°46' W 080°10'0 0.0
2017-Sep-21 23:29N 25°46' W 080°10'0 0.0
2017-Sep-21 22:59N 25°46' W 080°10'0 0.0
2017-Sep-21 22:29N 25°46' W 080°10'0 0.0
2017-Sep-21 21:59N 25°46' W 080°10'0 0.0
2017-Sep-21 21:29N 25°46' W 080°10'0 0.0
2017-Sep-21 20:59N 25°46' W 080°10'0 0.0
2017-Sep-21 20:29N 25°46' W 080°10'0 0.0
2017-Sep-21 19:50N 25°46' W 080°10'0 0.0
2017-Sep-21 19:29N 25°46' W 080°10'0 0.0
2017-Sep-21 18:59N 25°46' W 080°10'0 0.0
2017-Sep-21 18:29N 25°46' W 080°10'0 0.0
2017-Sep-21 17:59N 25°46' W 080°10'0 0.0
2017-Sep-21 17:29N 25°46' W 080°10'0 0.0
2017-Sep-21 16:59N 25°46' W 080°10'0 0.0
2017-Sep-21 16:26N 25°46' W 080°10'0 0.0
2017-Sep-21 15:56N 25°46' W 080°10'0 0.0
2017-Sep-21 15:29N 25°46' W 080°10'0 0.0
2017-Sep-21 14:59N 25°46' W 080°10'0 0.0
2017-Sep-21 14:29N 25°46' W 080°10'0 0.0
2017-Sep-21 13:59N 25°46' W 080°10'0 0.0
2017-Sep-21 13:29N 25°46' W 080°10'0 0.0
2017-Sep-21 13:00N 25°46' W 080°10'2 3.9
2017-Sep-21 12:30N 25°46' W 080°08'3 6.7
2017-Sep-21 12:00N 25°47' W 080°05'3 5.8
2017-Sep-21 11:30N 25°46' W 080°01'713.2
2017-Sep-21 11:00N 25°40' W 080°01'714.4
2017-Sep-21 10:30N 25°32' W 080°01'1214.8
2017-Sep-21 09:42N 25°20' W 080°01'314.9
2017-Sep-21 09:30N 25°18' W 080°01'  
2017-Sep-15 09:16N 24°26' W 081°03'311.2
2017-Sep-15 09:00N 24°28' W 081°00'611.1
2017-Sep-15 08:27N 24°32' W 080°55'611.7
2017-Sep-15 07:57N 24°35' W 080°50'5613.0
2017-Sep-15 03:40N 25°15' W 080°06'211.9
2017-Sep-15 03:29N 25°17' W 080°05'611.6
2017-Sep-15 03:00N 25°22' W 080°03'511.1
2017-Sep-15 02:30N 25°27' W 080°02'611.2
2017-Sep-15 02:00N 25°33' W 080°01'611.4
2017-Sep-15 01:30N 25°38' W 080°01'611.6
2017-Sep-15 01:00N 25°44' W 080°01'611.6
2017-Sep-15 00:30N 25°50' W 080°01'611.6
2017-Sep-15 00:00N 25°56' W 080°01'611.9
2017-Sep-14 23:30N 26°02' W 080°02'510.0
2017-Sep-14 23:00N 26°06' W 080°05'2 3.8
2017-Sep-14 22:30N 26°05' W 080°07'0 0.0
2017-Sep-14 21:58N 26°05' W 080°07'0 0.0
2017-Sep-14 21:28N 26°05' W 080°07'0 0.0
2017-Sep-14 20:58N 26°05' W 080°07'0 0.0
2017-Sep-14 20:28N 26°05' W 080°07'0 0.0
2017-Sep-14 19:58N 26°05' W 080°07'0 0.0
2017-Sep-14 19:28N 26°05' W 080°07'0 0.0
2017-Sep-14 18:58N 26°05' W 080°07'0 0.0
2017-Sep-14 18:28N 26°05' W 080°07'0 0.0
2017-Sep-14 17:58N 26°05' W 080°07'0 0.0
2017-Sep-14 14:38N 26°06' W 080°07'1 5.5
2017-Sep-14 14:28N 26°06' W 080°06'3 6.8
2017-Sep-14 13:59N 26°08' W 080°04'1 1.1
2017-Sep-14 13:11N 26°09' W 080°05'0 0.0
2017-Sep-14 12:56N 26°09' W 080°05'0 0.1
2017-Sep-14 12:23N 26°09' W 080°05'0 0.0
2017-Sep-14 11:59N 26°09' W 080°05'0 0.0
2017-Sep-14 11:29N 26°09' W 080°05'0 0.0
2017-Sep-14 10:50N 26°09' W 080°04'0 0.1
2017-Sep-14 10:26N 26°09' W 080°04'0 0.0
2017-Sep-14 09:50N 26°09' W 080°04'0 0.0
2017-Sep-14 09:29N 26°09' W 080°04'0 0.1
2017-Sep-14 08:44N 26°09' W 080°05'  

Dump ship's entire track history